Time;durP1;ratioP1;P1;durP2;ratioP2;P2;SDS_P1;SDS_P2;PMS_P1;PMS_P2;Temp;Humidity;BMP_temperature;BMP_pressure;BME280_temperature;BME280_humidity;BME280_pressure;Samples;Min_cycle;Max_cycle;Signal;HPM_P1;HPM_P2
2021/12/05 00:24:14;;;;;;;29.52;8.52;;;4.00;99.90;;;;;;5073724;28;20048;-80
2021/12/05 00:26:45;;;;;;;23.80;7.35;;;3.90;99.90;;;;;;5080361;28;20102;-80
2021/12/05 00:31:57;;;;;;;20.83;6.38;;;3.90;99.90;;;;;;5090371;28;20051;-80
2021/12/05 00:38:13;;;;;;;18.00;6.07;;;3.90;99.90;;;;;;5073719;28;20561;-80
2021/12/05 00:43:02;;;;;;;21.92;6.13;;;3.90;99.90;;;;;;5077041;28;20137;-79
2021/12/05 00:45:44;;;;;;;15.20;5.70;;;3.90;99.90;;;;;;5075930;28;20047;-80
2021/12/05 00:48:25;;;;;;;17.10;5.70;;;3.90;99.90;;;;;;5078825;28;20867;-79
2021/12/05 01:03:48;;;;;;;16.55;5.40;;;3.90;99.90;;;;;;5077588;28;20479;-79
2021/12/05 01:14:06;;;;;;;15.95;5.82;;;3.90;99.90;;;;;;5077965;28;20090;-80
2021/12/05 01:16:33;;;;;;;16.75;5.30;;;3.90;99.90;;;;;;5087936;28;20097;-80
2021/12/05 01:18:59;;;;;;;17.25;5.75;;;3.80;99.90;;;;;;5074756;28;20772;-79
2021/12/05 01:21:26;;;;;;;15.45;5.38;;;3.90;99.90;;;;;;5080230;28;20405;-80
2021/12/05 01:26:56;;;;;;;16.42;5.03;;;3.90;99.90;;;;;;5078360;28;20052;-80
2021/12/05 01:32:09;;;;;;;14.60;4.63;;;3.80;99.90;;;;;;5074829;28;20040;-80
2021/12/05 01:34:58;;;;;;;19.50;5.63;;;3.80;99.90;;;;;;5074807;28;20054;-80
2021/12/05 01:43:19;;;;;;;18.15;5.90;;;3.80;99.90;;;;;;5077240;28;20078;-80
2021/12/05 02:09:22;;;;;;;20.10;6.90;;;3.90;99.90;;;;;;5075604;28;20428;-80
2021/12/05 02:39:16;;;;;;;20.58;8.02;;;3.80;99.90;;;;;;5076580;28;20104;-80
2021/12/05 02:41:39;;;;;;;20.02;7.70;;;3.80;99.90;;;;;;5074287;28;20048;-80
2021/12/05 02:44:22;;;;;;;17.92;8.32;;;3.80;99.90;;;;;;5057170;28;20043;-80
2021/12/05 02:47:05;;;;;;;20.30;8.80;;;3.80;99.90;;;;;;5056163;28;20547;-80
2021/12/05 02:49:36;;;;;;;23.23;9.10;;;3.80;99.90;;;;;;5058593;28;20131;-80
2021/12/05 02:52:07;;;;;;;19.75;7.90;;;3.90;99.90;;;;;;5074817;28;20036;-79
2021/12/05 02:54:46;;;;;;;18.13;8.52;;;3.80;99.90;;;;;;5067195;28;20713;-79
2021/12/05 02:57:13;;;;;;;21.90;8.48;;;3.80;99.90;;;;;;5087053;28;20063;-79
2021/12/05 02:59:45;;;;;;;28.13;9.52;;;3.90;99.90;;;;;;5060137;28;20097;-79
2021/12/05 03:02:14;;;;;;;22.13;8.25;;;3.90;99.90;;;;;;5076608;28;20506;-79
2021/12/05 03:04:44;;;;;;;22.02;8.75;;;3.90;99.90;;;;;;5057410;28;20054;-79
2021/12/05 03:07:11;;;;;;;23.65;9.00;;;3.80;99.90;;;;;;5069177;28;20202;-79
2021/12/05 03:09:40;;;;;;;25.20;9.93;;;3.80;99.90;;;;;;5072471;28;20547;-79
2021/12/05 03:12:10;;;;;;;18.98;8.95;;;3.90;99.90;;;;;;5060676;28;20044;-79
2021/12/05 03:14:37;;;;;;;21.80;8.48;;;3.80;99.90;;;;;;5076509;28;20048;-79
2021/12/05 03:17:03;;;;;;;21.52;8.38;;;3.80;99.90;;;;;;5074984;28;20135;-79
2021/12/05 03:19:29;;;;;;;21.52;8.75;;;3.80;99.90;;;;;;5078400;28;20458;-79
2021/12/05 03:21:54;;;;;;;28.35;8.02;;;3.80;99.90;;;;;;5072526;28;20105;-79
2021/12/05 03:24:23;;;;;;;28.92;8.65;;;3.80;99.90;;;;;;5084899;28;20609;-79
2021/12/05 03:26:51;;;;;;;21.92;9.25;;;3.80;99.90;;;;;;5058564;28;20044;-79
2021/12/05 03:29:20;;;;;;;24.08;8.55;;;3.80;99.90;;;;;;5077608;28;20051;-79
2021/12/05 03:31:47;;;;;;;20.58;8.63;;;3.70;99.90;;;;;;5077110;28;20102;-79
2021/12/05 03:34:16;;;;;;;22.30;9.48;;;3.70;99.90;;;;;;5056190;28;20046;-78
2021/12/05 03:36:44;;;;;;;27.92;10.60;;;3.70;99.90;;;;;;5056426;28;20124;-79
2021/12/05 03:39:11;;;;;;;21.35;9.48;;;3.70;99.90;;;;;;5059888;28;20042;-79
2021/12/05 03:41:38;;;;;;;24.83;9.43;;;3.70;99.90;;;;;;5057766;28;20044;-79
2021/12/05 03:44:06;;;;;;;31.88;9.77;;;3.60;99.90;;;;;;5070113;28;20036;-80
2021/12/05 03:46:33;;;;;;;27.58;10.05;;;3.60;99.90;;;;;;5074630;28;20593;-79
2021/12/05 03:49:03;;;;;;;24.27;10.40;;;3.60;99.90;;;;;;5075431;28;20052;-79
2021/12/05 03:51:31;;;;;;;22.92;9.82;;;3.60;99.90;;;;;;5068965;28;20206;-79
2021/12/05 03:53:57;;;;;;;26.63;10.07;;;3.60;99.90;;;;;;5062922;28;20123;-79
2021/12/05 03:56:23;;;;;;;23.05;10.95;;;3.60;99.90;;;;;;5056386;28;20131;-80
2021/12/05 03:58:51;;;;;;;32.20;10.30;;;3.60;99.90;;;;;;5063908;28;20066;-80
2021/12/05 04:01:18;;;;;;;29.60;11.10;;;3.50;99.90;;;;;;5055116;28;20511;-80
2021/12/05 04:03:45;;;;;;;39.67;12.05;;;3.50;99.90;;;;;;5077535;28;20040;-79
2021/12/05 04:06:14;;;;;;;41.42;12.20;;;4.10;99.90;;;;;;5073430;28;20447;-79
2021/12/05 04:08:40;;;;;;;34.22;11.63;;;3.50;99.90;;;;;;5080179;28;20404;-79
2021/12/05 04:11:35;;;;;;;34.22;11.27;;;3.50;99.90;;;;;;5078769;28;20424;-79
2021/12/05 04:14:03;;;;;;;31.40;11.98;;;3.50;99.90;;;;;;5074980;28;20435;-80
2021/12/05 04:16:29;;;;;;;32.97;12.25;;;3.50;99.90;;;;;;5063380;28;20050;-79
2021/12/05 04:18:55;;;;;;;31.30;12.93;;;3.50;99.90;;;;;;5058098;28;20048;-80
2021/12/05 04:21:21;;;;;;;31.23;13.25;;;3.50;99.90;;;;;;5064991;28;20036;-79
2021/12/05 04:23:47;;;;;;;32.83;14.13;;;3.50;99.90;;;;;;5064837;28;20126;-80
2021/12/05 04:26:13;;;;;;;41.83;14.13;;;3.50;99.90;;;;;;5071465;28;20052;-78
2021/12/05 04:28:39;;;;;;;32.60;13.45;;;3.50;99.90;;;;;;5062521;28;20040;-79
2021/12/05 04:31:09;;;;;;;36.10;13.77;;;3.60;99.90;;;;;;5063409;28;20059;-80
2021/12/05 04:33:36;;;;;;;36.03;13.68;;;3.50;99.90;;;;;;5071800;28;20036;-80
2021/12/05 04:36:05;;;;;;;37.22;14.50;;;3.50;99.90;;;;;;5062238;28;20119;-79
2021/12/05 04:38:31;;;;;;;39.75;14.10;;;3.60;99.90;;;;;;5076794;28;20115;-80
2021/12/05 04:40:56;;;;;;;41.83;14.23;;;3.60;99.90;;;;;;5074996;28;20155;-80
2021/12/05 04:43:22;;;;;;;27.52;13.68;;;3.50;99.90;;;;;;5060878;28;20122;-79
2021/12/05 04:45:48;;;;;;;36.80;15.05;;;3.50;99.90;;;;;;5075649;28;20079;-79
2021/12/05 04:48:14;;;;;;;42.95;14.50;;;3.50;99.90;;;;;;5077324;28;20040;-80
2021/12/05 04:50:40;;;;;;;39.15;16.58;;;3.50;99.90;;;;;;5064549;28;20044;-79
2021/12/05 04:53:07;;;;;;;49.17;15.18;;;3.50;99.90;;;;;;5059535;28;20135;-80
2021/12/05 04:55:33;;;;;;;39.60;14.50;;;3.50;99.90;;;;;;5063863;28;20164;-79
2021/12/05 04:57:59;;;;;;;36.85;13.43;;;3.50;99.90;;;;;;5085833;28;20047;-79
2021/12/05 05:00:40;;;;;;;36.88;13.95;;;3.50;99.90;;;;;;5082066;28;20044;-80
2021/12/05 05:03:06;;;;;;;35.05;14.43;;;3.50;99.90;;;;;;5078439;28;21555;-80
2021/12/05 05:05:33;;;;;;;40.50;14.15;;;3.50;99.90;;;;;;5060815;28;20050;-79
2021/12/05 05:07:59;;;;;;;33.58;13.85;;;3.50;99.90;;;;;;5059493;28;20542;-80
2021/12/05 05:10:31;;;;;;;34.83;14.15;;;3.50;99.90;;;;;;5083357;28;20043;-80
2021/12/05 05:12:57;;;;;;;28.60;13.80;;;3.50;99.90;;;;;;5082079;28;20071;-80
2021/12/05 05:15:26;;;;;;;28.60;12.82;;;3.50;99.90;;;;;;5072988;28;20066;-79
2021/12/05 05:17:54;;;;;;;38.50;12.68;;;3.50;99.90;;;;;;5066220;28;20040;-79
2021/12/05 05:20:25;;;;;;;34.72;13.25;;;3.40;99.90;;;;;;5081346;28;20136;-79
2021/12/05 05:47:14;;;;;;;31.02;12.50;;;3.30;99.90;;;;;;5070075;28;20079;-79
2021/12/05 05:51:57;;;;;;;30.48;11.00;;;3.30;99.90;;;;;;5065840;28;20094;-80
2021/12/05 05:54:23;;;;;;;21.67;10.63;;;3.00;99.90;;;;;;5083092;28;20055;-80
2021/12/05 05:56:54;;;;;;;29.67;11.27;;;3.30;99.90;;;;;;5064892;28;20664;-80
2021/12/05 05:59:25;;;;;;;29.77;11.50;;;3.20;99.90;;;;;;5073308;28;20040;-80
2021/12/05 06:04:18;;;;;;;33.90;11.32;;;3.20;99.90;;;;;;5085651;28;20457;-80
2021/12/05 06:06:44;;;;;;;31.70;10.80;;;3.20;99.90;;;;;;5056135;28;20449;-79
2021/12/05 06:09:10;;;;;;;32.00;10.20;;;3.20;99.90;;;;;;5073679;28;20059;-80
2021/12/05 06:11:36;;;;;;;31.23;10.77;;;3.10;99.90;;;;;;5068790;28;20043;-80
2021/12/05 06:14:03;;;;;;;26.05;10.13;;;3.10;99.90;;;;;;5053822;28;20097;-80
2021/12/05 06:16:30;;;;;;;30.95;10.20;;;3.10;99.90;;;;;;5083132;28;20040;-80
2021/12/05 06:18:56;;;;;;;30.02;10.18;;;3.10;99.90;;;;;;5047646;28;20507;-80
2021/12/05 06:21:22;;;;;;;23.60;10.73;;;3.10;99.90;;;;;;5065565;28;20706;-80
2021/12/05 06:23:48;;;;;;;22.60;10.25;;;3.10;99.90;;;;;;5054534;28;20147;-80
2021/12/05 06:26:21;;;;;;;32.53;10.48;;;3.10;99.90;;;;;;5049641;28;20036;-79
2021/12/05 06:28:59;;;;;;;28.15;9.43;;;3.10;99.90;;;;;;5072657;28;20043;-80
2021/12/05 06:31:42;;;;;;;32.70;10.98;;;3.10;99.90;;;;;;5074669;28;20512;-80
2021/12/05 06:39:45;;;;;;;29.40;9.38;;;3.00;99.90;;;;;;5088212;28;20048;-80
2021/12/05 06:47:53;;;;;;;29.52;9.00;;;3.00;99.90;;;;;;5084527;28;20055;-79
2021/12/05 06:50:19;;;;;;;25.35;9.57;;;3.00;99.90;;;;;;5065972;28;20058;-80
2021/12/05 06:52:44;;;;;;;25.05;8.05;;;2.90;99.90;;;;;;5068091;28;20041;-80
2021/12/05 06:55:12;;;;;;;24.27;8.07;;;2.90;99.90;;;;;;5061844;28;20069;-79
2021/12/05 06:57:38;;;;;;;32.97;8.57;;;2.90;99.90;;;;;;5070076;28;20536;-80
2021/12/05 07:00:07;;;;;;;18.23;8.25;;;2.90;99.90;;;;;;5063318;28;20439;-80
2021/12/05 07:02:33;;;;;;;25.50;8.45;;;2.90;99.90;;;;;;5042364;28;20048;-79
2021/12/05 07:05:19;;;;;;;25.73;8.40;;;2.90;99.90;;;;;;5059677;28;20377;-79
2021/12/05 07:07:44;;;;;;;21.13;7.88;;;2.90;99.90;;;;;;5072710;28;20045;-80
2021/12/05 07:10:13;;;;;;;26.15;8.18;;;2.80;99.90;;;;;;5043858;28;21435;-80
2021/12/05 07:13:24;;;;;;;25.30;7.65;;;2.80;99.90;;;;;;5046933;28;20444;-79
2021/12/05 07:23:45;;;;;;;24.42;7.78;;;2.70;99.90;;;;;;5085553;28;20056;-80
2021/12/05 07:26:50;;;;;;;24.02;7.95;;;2.70;99.90;;;;;;5069385;28;20060;-79
2021/12/05 07:40:29;;;;;;;29.40;8.73;;;2.80;99.90;;;;;;5080352;28;20056;-80
2021/12/05 07:42:58;;;;;;;21.73;8.00;;;2.80;99.90;;;;;;5065045;28;20582;-79
2021/12/05 07:45:34;;;;;;;22.67;9.13;;;2.80;99.90;;;;;;5053553;28;20356;-80
2021/12/05 07:48:10;;;;;;;24.60;9.10;;;2.80;99.90;;;;;;5087626;28;20043;-79
2021/12/05 07:50:46;;;;;;;24.92;8.60;;;3.00;99.90;;;;;;5055988;28;20051;-79
2021/12/05 07:53:19;;;;;;;30.13;8.40;;;2.80;99.90;;;;;;5045185;28;20146;-80
2021/12/05 07:55:48;;;;;;;25.10;8.85;;;2.90;99.90;;;;;;5091109;28;20050;-80
2021/12/05 08:14:32;;;;;;;28.70;8.98;;;2.90;99.90;;;;;;5077169;28;20052;-80
2021/12/05 08:14:48;;;;;;;26.52;9.50;;;2.90;99.90;;;;;;5082608;28;20052;-79
2021/12/05 08:17:17;;;;;;;22.80;8.60;;;2.90;99.90;;;;;;5052549;28;20424;-79
2021/12/05 08:19:43;;;;;;;29.35;10.05;;;3.00;99.90;;;;;;5067250;28;20326;-79
2021/12/05 08:22:09;;;;;;;23.40;9.38;;;3.00;99.90;;;;;;5062845;28;20059;-80
2021/12/05 08:24:38;;;;;;;35.25;10.85;;;3.50;99.90;;;;;;5063335;28;20851;-79
2021/12/05 08:27:06;;;;;;;29.98;9.88;;;3.00;99.90;;;;;;5032694;28;20041;-79
2021/12/05 08:29:54;;;;;;;31.17;10.50;;;3.10;99.90;;;;;;5059025;28;20040;-79
2021/12/05 08:35:08;;;;;;;28.65;11.23;;;3.10;99.90;;;;;;5068170;28;20581;-80
2021/12/05 08:42:55;;;;;;;27.38;10.35;;;3.20;99.90;;;;;;5065695;28;20101;-79
2021/12/05 08:45:48;;;;;;;33.28;10.73;;;3.20;99.90;;;;;;5070405;28;20044;-80
2021/12/05 09:26:50;;;;;;;27.70;11.45;;;3.80;99.90;;;;;;5071485;28;20138;-80
2021/12/05 09:40:26;;;;;;;25.65;11.30;;;4.00;99.90;;;;;;5068824;28;20519;-79
2021/12/05 09:51:51;;;;;;;25.90;11.70;;;4.00;99.90;;;;;;5073692;28;20166;-79
2021/12/05 10:03:01;;;;;;;25.75;11.05;;;4.00;99.90;;;;;;5055103;28;20484;-79
2021/12/05 10:11:19;;;;;;;22.92;11.88;;;3.90;99.90;;;;;;5068744;28;20295;-79
2021/12/05 10:16:24;;;;;;;28.00;11.43;;;3.90;99.90;;;;;;5071265;28;20086;-79
2021/12/05 10:38:31;;;;;;;34.15;11.57;;;3.80;99.90;;;;;;5069106;28;20869;-79
2021/12/05 10:43:47;;;;;;;28.42;11.85;;;3.90;99.90;;;;;;5067906;28;20052;-79
2021/12/05 10:46:16;;;;;;;25.13;11.38;;;3.90;99.90;;;;;;5056990;28;20052;-79
2021/12/05 10:48:44;;;;;;;26.23;11.57;;;3.90;99.90;;;;;;5058654;28;20094;-79
2021/12/05 10:51:13;;;;;;;26.15;10.88;;;4.00;99.90;;;;;;5041807;28;20044;-80
2021/12/05 10:53:43;;;;;;;23.95;11.65;;;4.00;99.90;;;;;;5047740;28;20130;-80
2021/12/05 10:56:26;;;;;;;25.85;11.50;;;3.90;99.90;;;;;;5063808;28;20589;-79
2021/12/05 10:58:57;;;;;;;30.95;12.48;;;4.00;99.90;;;;;;5050960;28;20147;-79
2021/12/05 11:01:37;;;;;;;25.75;11.63;;;3.90;99.90;;;;;;5066143;28;20079;-80
2021/12/05 11:04:08;;;;;;;22.90;12.07;;;4.00;99.90;;;;;;5043031;28;20123;-80
2021/12/05 11:06:52;;;;;;;28.10;11.55;;;4.00;99.90;;;;;;5063996;28;20479;-80
2021/12/05 11:09:34;;;;;;;22.58;11.32;;;4.00;99.90;;;;;;5049274;28;20044;-79
2021/12/05 11:12:12;;;;;;;24.95;11.75;;;4.00;99.90;;;;;;5059855;28;20592;-79
2021/12/05 11:14:41;;;;;;;26.77;11.80;;;4.00;99.90;;;;;;5049264;28;20154;-80
2021/12/05 11:17:08;;;;;;;25.17;11.20;;;4.00;99.90;;;;;;5063445;28;20048;-79
2021/12/05 11:19:38;;;;;;;27.65;12.40;;;3.90;99.90;;;;;;5054385;28;20821;-80
2021/12/05 11:22:26;;;;;;;24.85;11.32;;;4.40;99.90;;;;;;5073010;28;20051;-79
2021/12/05 11:25:19;;;;;;;28.33;10.45;;;4.00;99.90;;;;;;5053528;28;20052;-79
2021/12/05 11:27:48;;;;;;;25.25;11.82;;;4.00;99.90;;;;;;5068213;28;20505;-79
2021/12/05 11:30:26;;;;;;;24.77;10.82;;;4.40;99.90;;;;;;5067915;28;20118;-80
2021/12/05 11:32:55;;;;;;;26.90;12.13;;;4.00;99.90;;;;;;5072502;28;20049;-80
2021/12/05 11:35:33;;;;;;;26.02;11.80;;;4.10;99.90;;;;;;5068236;28;21301;-79
2021/12/05 11:38:01;;;;;;;28.27;10.85;;;4.00;99.90;;;;;;5074328;28;20055;-80
2021/12/05 11:40:58;;;;;;;23.50;11.43;;;4.00;99.90;;;;;;5052534;28;20045;-80
2021/12/05 11:43:29;;;;;;;30.15;11.45;;;4.10;99.90;;;;;;5057235;28;20050;-80
2021/12/05 11:46:06;;;;;;;30.90;11.93;;;4.10;99.90;;;;;;5048779;28;20204;-80
2021/12/05 11:48:45;;;;;;;26.92;11.55;;;4.40;99.90;;;;;;5065575;28;20168;-80
2021/12/05 11:51:19;;;;;;;24.23;10.73;;;4.10;99.90;;;;;;5068084;28;20048;-79
2021/12/05 11:53:52;;;;;;;26.20;12.05;;;4.10;99.90;;;;;;5072295;28;20114;-79
2021/12/05 11:56:43;;;;;;;26.48;11.00;;;4.20;99.90;;;;;;5080460;28;20087;-80
2021/12/05 11:59:30;;;;;;;28.33;10.30;;;4.20;99.90;;;;;;5068334;28;20540;-80
2021/12/05 12:02:08;;;;;;;23.55;10.43;;;4.20;99.90;;;;;;5053649;28;20135;-80
2021/12/05 12:04:46;;;;;;;24.33;9.93;;;4.20;99.90;;;;;;5061909;28;20036;-80
2021/12/05 12:07:37;;;;;;;23.50;11.25;;;4.30;99.90;;;;;;5062276;28;20052;-80
2021/12/05 12:10:15;;;;;;;23.73;10.38;;;4.30;99.90;;;;;;5075897;28;20130;-80
2021/12/05 12:12:44;;;;;;;22.17;10.23;;;4.30;99.90;;;;;;5068976;28;20159;-80
2021/12/05 12:15:10;;;;;;;29.08;10.82;;;4.30;99.90;;;;;;5075563;28;20701;-80
2021/12/05 12:17:36;;;;;;;22.08;9.68;;;4.40;99.90;;;;;;5051015;28;20055;-80
2021/12/05 12:20:07;;;;;;;24.27;10.27;;;4.40;99.90;;;;;;5059288;28;20039;-80
2021/12/05 12:22:32;;;;;;;16.83;9.57;;;4.40;99.90;;;;;;5074783;28;20398;-80
2021/12/05 12:25:10;;;;;;;22.20;10.02;;;4.40;99.90;;;;;;5077486;28;20753;-80
2021/12/05 12:27:36;;;;;;;22.45;10.85;;;4.50;99.90;;;;;;5074451;28;20649;-80
2021/12/05 12:30:04;;;;;;;21.90;9.60;;;4.50;99.90;;;;;;5058721;28;20128;-80
2021/12/05 12:32:36;;;;;;;23.45;10.85;;;4.50;99.90;;;;;;5079331;27;20048;-79
2021/12/05 12:35:10;;;;;;;19.13;9.98;;;4.60;99.90;;;;;;5077414;28;20032;-80
2021/12/05 12:38:01;;;;;;;18.63;9.30;;;4.50;99.90;;;;;;5056876;28;20455;-79
2021/12/05 12:40:50;;;;;;;26.02;9.70;;;4.60;99.90;;;;;;5068894;28;20146;-79
2021/12/05 12:43:34;;;;;;;20.70;9.63;;;4.70;99.90;;;;;;5059353;28;20084;-80
2021/12/05 12:46:19;;;;;;;22.02;8.90;;;4.70;99.90;;;;;;5058564;28;20052;-80
2021/12/05 12:48:46;;;;;;;20.73;9.13;;;4.70;99.90;;;;;;5058342;28;20542;-80
2021/12/05 12:51:37;;;;;;;18.58;9.18;;;4.70;99.90;;;;;;5074841;28;20064;-80
2021/12/05 12:54:17;;;;;;;16.30;8.60;;;4.80;99.90;;;;;;5073756;28;20134;-80
2021/12/05 12:57:09;;;;;;;23.60;9.88;;;4.80;99.90;;;;;;5052295;28;20464;-80
2021/12/05 12:59:40;;;;;;;18.73;8.75;;;4.90;99.90;;;;;;5062618;28;20041;-80
2021/12/05 13:10:23;;;;;;;21.15;9.10;;;4.90;99.90;;;;;;5063285;28;20525;-80
2021/12/05 13:12:54;;;;;;;17.10;8.18;;;4.90;99.90;;;;;;5046522;28;20044;-81
2021/12/05 13:15:34;;;;;;;20.13;9.38;;;4.90;99.90;;;;;;5060965;28;20044;-81
2021/12/05 13:18:13;;;;;;;16.17;7.85;;;4.90;99.90;;;;;;5071159;28;20040;-81
2021/12/05 13:20:41;;;;;;;17.17;8.35;;;4.90;99.90;;;;;;5068953;28;20455;-80
2021/12/05 13:23:35;;;;;;;17.48;8.52;;;4.90;99.90;;;;;;5060090;28;20040;-80
2021/12/05 13:26:27;;;;;;;17.92;8.68;;;4.90;99.90;;;;;;5064558;28;20789;-81
2021/12/05 13:29:14;;;;;;;18.63;8.68;;;4.90;99.90;;;;;;5054652;28;20560;-80
2021/12/05 13:32:05;;;;;;;22.98;8.57;;;4.90;99.90;;;;;;5063294;28;20408;-81
2021/12/05 13:34:51;;;;;;;22.63;9.38;;;4.90;99.90;;;;;;5061828;28;20052;-81
2021/12/05 13:37:45;;;;;;;16.67;8.27;;;4.90;99.90;;;;;;5068560;28;20052;-81
2021/12/05 13:40:14;;;;;;;17.95;8.68;;;4.90;99.90;;;;;;5051269;28;20052;-79
2021/12/05 13:42:46;;;;;;;19.63;8.35;;;4.90;99.90;;;;;;5074580;28;20039;-79
2021/12/05 13:45:28;;;;;;;17.85;8.52;;;4.90;99.90;;;;;;5070047;28;20713;-78
2021/12/05 13:47:53;;;;;;;;;;;4.90;99.90;;;;;;5066610;28;20139;-78
2021/12/05 13:50:22;;;;;;;19.95;9.02;;;5.00;99.90;;;;;;5051143;28;19934;-78
2021/12/05 13:52:48;;;;;;;16.02;8.70;;;5.00;99.90;;;;;;5051360;28;20036;-79
2021/12/05 13:55:35;;;;;;;20.83;9.25;;;5.00;99.90;;;;;;5056985;28;20056;-79
2021/12/05 13:58:30;;;;;;;21.65;8.45;;;5.00;99.90;;;;;;5061773;28;20055;-79
2021/12/05 14:01:15;;;;;;;16.73;8.30;;;5.00;99.90;;;;;;5044003;28;20548;-79
2021/12/05 14:03:46;;;;;;;20.58;9.80;;;5.00;99.90;;;;;;5076926;28;20551;-80
2021/12/05 14:06:34;;;;;;;15.25;8.27;;;5.00;99.90;;;;;;5080964;28;20044;-78
2021/12/05 14:09:08;;;;;;;16.48;8.43;;;5.00;99.90;;;;;;5063470;28;20501;-80
2021/12/05 14:11:37;;;;;;;22.52;9.23;;;4.90;99.90;;;;;;5054386;28;20073;-80
2021/12/05 14:14:07;;;;;;;19.17;9.40;;;4.90;99.90;;;;;;5064203;28;20054;-79
2021/12/05 14:16:45;;;;;;;25.63;9.23;;;4.90;99.90;;;;;;5053304;28;20043;-79
2021/12/05 14:19:16;;;;;;;23.50;9.45;;;4.90;99.90;;;;;;5080888;28;20045;-79
2021/12/05 14:21:50;;;;;;;20.63;9.87;;;4.90;99.90;;;;;;5066526;28;20124;-79
2021/12/05 14:24:19;;;;;;;22.63;8.95;;;4.80;99.90;;;;;;5079540;28;20334;-79
2021/12/05 14:26:51;;;;;;;17.50;8.85;;;4.80;99.90;;;;;;5072261;28;20052;-80
2021/12/05 14:29:20;;;;;;;15.77;8.52;;;4.80;99.90;;;;;;5059863;28;20357;-79
2021/12/05 14:31:59;;;;;;;17.33;8.52;;;4.80;99.90;;;;;;5084151;28;20582;-80
2021/12/05 14:34:25;;;;;;;24.00;10.77;;;4.70;99.90;;;;;;5069600;28;20526;-79
2021/12/05 14:36:58;;;;;;;26.95;14.43;;;4.70;99.90;;;;;;5045799;28;20048;-80
2021/12/05 14:39:28;;;;;;;25.10;13.15;;;4.70;99.90;;;;;;5052846;28;20071;-79
2021/12/05 14:41:58;;;;;;;21.67;10.15;;;4.70;99.90;;;;;;5078620;28;20035;-80
2021/12/05 14:44:24;;;;;;;21.17;9.70;;;4.70;99.90;;;;;;5066652;28;20043;-80
2021/12/05 14:46:57;;;;;;;19.48;9.48;;;4.70;99.90;;;;;;5055685;28;20120;-80
2021/12/05 14:49:25;;;;;;;18.30;8.68;;;4.70;99.90;;;;;;5080638;28;20564;-79
2021/12/05 14:51:52;;;;;;;20.00;8.23;;;4.70;99.90;;;;;;5053952;28;20051;-80
2021/12/05 14:54:32;;;;;;;14.18;8.18;;;4.70;99.90;;;;;;5076706;28;20815;-80
2021/12/05 14:56:58;;;;;;;20.08;8.30;;;4.70;99.90;;;;;;5071287;28;20090;-80
2021/12/05 14:59:25;;;;;;;16.48;7.80;;;4.70;99.90;;;;;;5085424;28;20048;-80
2021/12/05 15:01:56;;;;;;;19.88;7.93;;;4.60;99.90;;;;;;5058854;28;20431;-80
2021/12/05 15:04:27;;;;;;;18.38;9.30;;;4.60;99.90;;;;;;5064233;28;20130;-80
2021/12/05 15:06:53;;;;;;;18.20;9.00;;;4.60;99.90;;;;;;5051923;28;20746;-80
2021/12/05 15:09:27;;;;;;;21.42;11.60;;;4.60;99.90;;;;;;5067686;28;20040;-80
2021/12/05 15:12:09;;;;;;;24.50;10.50;;;4.60;99.90;;;;;;5070056;28;20044;-80
2021/12/05 15:14:37;;;;;;;24.17;14.32;;;4.60;99.90;;;;;;5069925;28;20086;-79
2021/12/05 15:17:06;;;;;;;18.60;11.27;;;4.60;99.90;;;;;;5068554;28;20089;-80
2021/12/05 15:19:33;;;;;;;19.38;11.98;;;4.90;99.90;;;;;;5081152;28;20564;-80
2021/12/05 15:22:01;;;;;;;18.00;9.50;;;4.60;99.90;;;;;;5073837;28;20062;-80
2021/12/05 15:24:27;;;;;;;19.05;10.93;;;4.60;99.90;;;;;;5071583;28;20669;-81
2021/12/05 15:26:55;;;;;;;20.83;10.38;;;4.60;99.90;;;;;;5066615;28;20052;-80
2021/12/05 15:29:22;;;;;;;22.73;10.32;;;4.60;99.90;;;;;;5076228;28;20491;-80
2021/12/05 15:31:48;;;;;;;23.10;12.20;;;4.60;99.90;;;;;;5058251;28;20048;-80
2021/12/05 15:34:20;;;;;;;21.48;11.75;;;4.60;99.90;;;;;;5055335;28;20040;-80
2021/12/05 15:36:46;;;;;;;28.42;12.63;;;4.60;99.90;;;;;;5051538;28;20068;-80
2021/12/05 15:39:19;;;;;;;23.75;12.80;;;4.60;99.90;;;;;;5074226;28;20144;-81
2021/12/05 15:41:50;;;;;;;28.13;12.88;;;4.60;99.90;;;;;;5072446;28;20079;-80
2021/12/05 15:44:32;;;;;;;28.42;13.15;;;4.60;99.90;;;;;;5047878;28;20063;-80
2021/12/05 15:47:07;;;;;;;26.30;12.38;;;4.60;99.90;;;;;;5057154;28;20381;-80
2021/12/05 15:49:42;;;;;;;25.50;12.60;;;4.60;99.90;;;;;;5054523;28;20063;-79
2021/12/05 15:52:08;;;;;;;22.33;11.93;;;4.60;99.90;;;;;;5074762;28;20083;-80
2021/12/05 15:54:34;;;;;;;29.75;12.70;;;4.60;99.90;;;;;;5053929;28;20467;-79
2021/12/05 15:57:13;;;;;;;26.75;12.38;;;4.60;99.90;;;;;;5059043;28;20056;-79
2021/12/05 15:59:42;;;;;;;26.30;13.07;;;4.70;99.90;;;;;;5062879;28;20546;-78
2021/12/05 16:02:10;;;;;;;33.17;12.93;;;4.60;99.90;;;;;;5066951;28;20044;-79
2021/12/05 16:04:39;;;;;;;28.08;12.93;;;4.60;99.90;;;;;;5054393;28;20039;-79
2021/12/05 16:07:08;;;;;;;27.98;12.45;;;4.60;99.90;;;;;;5045820;28;20048;-80
2021/12/05 16:09:35;;;;;;;26.20;12.75;;;4.70;99.90;;;;;;5049291;28;20037;-79
2021/12/05 16:12:11;;;;;;;26.83;12.75;;;4.60;99.90;;;;;;5063108;28;20051;-80
2021/12/05 16:14:42;;;;;;;29.85;14.68;;;4.50;99.90;;;;;;5074299;28;20044;-79
2021/12/05 16:17:16;;;;;;;27.70;13.27;;;4.50;99.90;;;;;;5076620;28;20443;-79
2021/12/05 16:20:07;;;;;;;24.58;13.25;;;4.50;99.90;;;;;;5072354;28;20045;-79
2021/12/05 16:22:53;;;;;;;25.15;12.95;;;4.50;99.90;;;;;;5071767;28;20450;-80
2021/12/05 16:25:19;;;;;;;30.67;13.75;;;4.50;99.90;;;;;;5074057;28;20093;-81
2021/12/05 16:27:50;;;;;;;27.00;14.70;;;4.50;99.90;;;;;;5056295;28;20052;-81
2021/12/05 16:30:26;;;;;;;25.55;13.32;;;4.50;99.90;;;;;;5071560;28;20048;-81
2021/12/05 16:32:53;;;;;;;25.65;14.23;;;4.50;99.90;;;;;;5076999;28;20295;-79
2021/12/05 16:35:35;;;;;;;31.35;13.98;;;4.50;99.90;;;;;;5074905;28;20125;-81
2021/12/05 16:38:02;;;;;;;;;;;4.50;99.90;;;;;;5057875;28;20080;-80
2021/12/05 16:40:53;;;;;;;33.25;14.32;;;4.50;99.90;;;;;;5075462;28;19923;-80
2021/12/05 16:43:19;;;;;;;;;;;4.50;99.90;;;;;;5060620;28;20051;-80
2021/12/05 16:45:45;;;;;;;32.63;15.25;;;4.40;99.90;;;;;;5051999;28;19928;-81
2021/12/05 16:48:15;;;;;;;27.88;15.10;;;4.50;99.90;;;;;;5068853;28;20052;-81
2021/12/05 16:50:40;;;;;;;33.75;15.40;;;4.40;99.90;;;;;;5066521;28;20090;-80
2021/12/05 16:53:07;;;;;;;35.58;15.82;;;4.40;99.90;;;;;;5053898;28;20116;-81
2021/12/05 16:55:34;;;;;;;38.03;20.13;;;4.30;99.90;;;;;;5067261;28;20397;-81
2021/12/05 16:58:16;;;;;;;38.97;21.02;;;4.30;99.90;;;;;;5051468;28;20083;-81
2021/12/05 17:00:50;;;;;;;37.33;17.67;;;4.30;99.90;;;;;;5067799;28;20047;-80
2021/12/05 17:03:20;;;;;;;38.47;18.63;;;4.30;99.90;;;;;;5069007;28;20096;-80
2021/12/05 17:05:48;;;;;;;38.88;18.20;;;4.30;99.90;;;;;;5059404;28;20044;-80
2021/12/05 17:08:28;;;;;;;37.95;18.05;;;4.20;99.90;;;;;;5081582;27;20664;-80
2021/12/05 17:10:58;;;;;;;29.08;17.42;;;4.20;99.90;;;;;;5067822;28;20048;-80
2021/12/05 17:13:34;;;;;;;35.53;19.15;;;4.20;99.90;;;;;;5076245;28;20097;-80
2021/12/05 17:16:14;;;;;;;37.03;18.23;;;4.20;99.90;;;;;;5091927;27;20104;-80
2021/12/05 17:18:46;;;;;;;36.83;18.77;;;4.20;99.90;;;;;;5087243;28;20047;-81
2021/12/05 17:21:28;;;;;;;38.28;20.58;;;4.20;99.90;;;;;;5061141;28;20043;-81
2021/12/05 17:23:58;;;;;;;38.08;20.35;;;4.20;99.90;;;;;;5063593;28;20122;-81
2021/12/05 17:26:35;;;;;;;44.30;22.27;;;4.10;99.90;;;;;;5080088;28;20051;-80
2021/12/05 17:29:22;;;;;;;45.55;24.02;;;4.10;99.90;;;;;;5055602;28;20143;-80
2021/12/05 17:31:54;;;;;;;47.67;24.10;;;4.10;99.90;;;;;;5053294;28;20750;-80
2021/12/05 17:34:33;;;;;;;44.30;24.15;;;4.10;99.90;;;;;;5060787;27;20086;-81
2021/12/05 17:37:10;;;;;;;47.70;24.15;;;4.10;99.90;;;;;;5075944;28;20080;-80
2021/12/05 17:39:40;;;;;;;42.85;22.48;;;4.10;99.90;;;;;;5058288;28;20131;-80
2021/12/05 17:42:12;;;;;;;46.65;24.95;;;4.00;99.90;;;;;;5074371;28;20058;-80
2021/12/05 17:44:39;;;;;;;45.72;23.02;;;4.00;99.90;;;;;;5073888;28;20047;-81
2021/12/05 17:47:07;;;;;;;45.60;23.50;;;4.00;99.90;;;;;;5073956;28;20043;-81
2021/12/05 17:49:35;;;;;;;47.53;23.77;;;4.00;99.90;;;;;;5062888;28;20089;-81
2021/12/05 17:52:02;;;;;;;41.80;21.15;;;4.00;99.90;;;;;;5073652;28;20651;-81
2021/12/05 17:54:57;;;;;;;53.58;23.85;;;3.90;99.90;;;;;;5063742;28;20050;-80
2021/12/05 17:57:22;;;;;;;37.85;20.50;;;4.00;99.90;;;;;;5078191;28;20056;-81
2021/12/05 18:00:01;;;;;;;;;;;4.00;99.90;;;;;;5080775;28;20066;-81
2021/12/05 18:05:22;;;;;;;39.38;20.30;;;4.00;99.90;;;;;;5081777;28;20055;-81
2021/12/05 18:07:50;;;;;;;42.00;23.98;;;4.00;99.90;;;;;;5078975;28;20048;-81
2021/12/05 18:10:20;;;;;;;44.17;22.40;;;4.00;99.90;;;;;;5061872;28;20076;-80
2021/12/05 18:12:46;;;;;;;46.92;24.35;;;4.00;99.90;;;;;;5077537;28;20553;-81
2021/12/05 18:15:24;;;;;;;45.78;24.27;;;4.00;99.90;;;;;;5074855;28;20056;-79